createdAt,value
2023-03-13T00:02:01.819Z,15.70
2023-03-13T00:04:29.108Z,31.80
2023-03-13T00:06:56.364Z,14.90
2023-03-13T00:09:24.411Z,20.07
2023-03-13T00:11:51.713Z,20.40
2023-03-13T00:14:19.040Z,24.30
2023-03-13T00:16:46.447Z,18.97
2023-03-13T00:19:15.160Z,33.30
2023-03-13T00:21:42.510Z,17.07
2023-03-13T00:24:11.443Z,19.97
2023-03-13T00:26:39.382Z,16.73
2023-03-13T00:29:06.683Z,13.93
2023-03-13T00:31:34.060Z,21.27
2023-03-13T00:34:03.272Z,24.30
2023-03-13T00:36:32.351Z,26.90
2023-03-13T00:38:59.799Z,19.63
2023-03-13T00:41:28.830Z,12.77
2023-03-13T00:43:57.440Z,26.30
2023-03-13T00:46:26.655Z,18.13
2023-03-13T00:48:54.069Z,14.17
2023-03-13T00:51:23.388Z,13.63
2023-03-13T00:53:50.773Z,20.23
2023-03-13T00:56:19.530Z,13.77
2023-03-13T00:58:48.302Z,10.43
2023-03-13T01:01:18.499Z,22.93
2023-03-13T01:03:47.984Z,16.70
2023-03-13T01:06:17.005Z,18.77
2023-03-13T01:08:44.303Z,14.73
2023-03-13T01:11:13.184Z,20.00
2023-03-13T01:13:40.744Z,17.63
2023-03-13T01:16:10.318Z,19.07
2023-03-13T01:18:40.158Z,24.83
2023-03-13T01:21:07.849Z,21.60
2023-03-13T01:23:35.195Z,23.20
2023-03-13T01:26:03.920Z,13.17
2023-03-13T01:28:31.744Z,24.37
2023-03-13T01:31:00.180Z,17.90
2023-03-13T01:33:27.529Z,25.27
2023-03-13T01:36:03.236Z,14.00
2023-03-13T01:38:30.617Z,18.53
2023-03-13T01:40:57.864Z,5.87
2023-03-13T01:43:27.798Z,23.27
2023-03-13T01:46:00.457Z,25.43
2023-03-13T01:48:34.392Z,23.50
2023-03-13T01:51:06.692Z,17.70
2023-03-13T01:53:36.725Z,16.20
2023-03-13T01:56:07.770Z,12.00
2023-03-13T01:58:35.840Z,33.83
2023-03-13T02:01:03.641Z,11.67
2023-03-13T02:03:31.429Z,11.70
2023-03-13T02:05:59.922Z,13.37
2023-03-13T02:08:36.226Z,14.07
2023-03-13T02:11:10.314Z,14.33
2023-03-13T02:13:37.607Z,35.87
2023-03-13T02:16:06.015Z,24.27
2023-03-13T02:18:33.716Z,13.77
2023-03-13T02:21:10.111Z,13.67
2023-03-13T02:23:49.914Z,18.23
2023-03-13T02:26:18.023Z,13.00
2023-03-13T02:28:45.385Z,22.77
2023-03-13T02:31:13.130Z,18.23
2023-03-13T02:33:42.575Z,23.33
2023-03-13T02:36:11.420Z,14.13
2023-03-13T02:38:44.699Z,24.23
2023-03-13T02:41:13.320Z,14.00
2023-03-13T02:43:41.417Z,25.37
2023-03-13T02:46:10.509Z,18.03
2023-03-13T02:48:40.462Z,23.53
2023-03-13T02:51:14.466Z,16.03
2023-03-13T02:53:43.116Z,18.73
2023-03-13T02:56:12.328Z,18.80
2023-03-13T02:58:49.781Z,19.67
2023-03-13T03:01:17.850Z,31.60
2023-03-13T03:03:45.232Z,20.97
2023-03-13T03:06:12.532Z,18.87
2023-03-13T03:08:40.893Z,17.83
2023-03-13T03:11:08.500Z,15.17
2023-03-13T03:13:36.077Z,21.67
2023-03-13T03:16:07.746Z,16.37
2023-03-13T03:18:35.463Z,12.70
2023-03-13T03:21:05.521Z,11.40
2023-03-13T03:23:33.424Z,24.33
2023-03-13T03:26:00.720Z,17.10
2023-03-13T03:28:28.073Z,11.30
2023-03-13T03:30:55.810Z,14.70
2023-03-13T03:33:24.415Z,15.70
2023-03-13T03:35:51.805Z,19.03
2023-03-13T03:38:19.187Z,32.77
2023-03-13T03:40:46.432Z,15.60
2023-03-13T03:43:13.734Z,23.73
2023-03-13T03:45:41.087Z,24.93
2023-03-13T03:48:08.390Z,12.47
2023-03-13T03:50:36.349Z,25.03
2023-03-13T03:53:03.793Z,24.63
2023-03-13T03:55:31.113Z,20.30
2023-03-13T03:57:58.368Z,18.13
2023-03-13T04:00:27.123Z,26.00
2023-03-13T04:02:55.253Z,13.33
2023-03-13T04:05:22.621Z,14.87
2023-03-13T04:07:50.688Z,29.43
2023-03-13T04:10:20.504Z,30.17
2023-03-13T04:12:51.946Z,23.30
2023-03-13T04:15:26.087Z,22.80
2023-03-13T04:17:56.950Z,17.90
2023-03-13T04:20:33.354Z,24.53
2023-03-13T04:23:16.738Z,21.23
2023-03-13T04:25:50.407Z,18.90
2023-03-13T04:28:27.681Z,16.13
2023-03-13T04:31:01.046Z,12.80
2023-03-13T04:33:43.809Z,17.67
2023-03-13T04:36:20.007Z,13.37
2023-03-13T04:38:58.862Z,16.90
2023-03-13T04:41:38.650Z,16.57
2023-03-13T04:44:14.765Z,25.53
2023-03-13T04:46:56.170Z,25.93
2023-03-13T04:49:36.951Z,14.20
2023-03-13T04:52:22.633Z,14.93
2023-03-13T04:55:11.132Z,14.93
2023-03-13T04:58:05.882Z,16.10
2023-03-13T05:00:40.857Z,9.20
2023-03-13T05:03:20.930Z,24.93
2023-03-13T05:06:06.396Z,8.83
2023-03-13T05:08:35.503Z,19.30
2023-03-13T05:11:03.714Z,17.17
2023-03-13T05:13:31.191Z,17.13
2023-03-13T05:15:58.628Z,24.30
2023-03-13T05:18:26.157Z,9.00
2023-03-13T05:20:53.395Z,17.70
2023-03-13T05:23:20.849Z,27.27
2023-03-13T05:25:48.101Z,27.60
2023-03-13T05:28:16.156Z,20.07
2023-03-13T05:30:43.712Z,23.97
2023-03-13T05:33:14.460Z,22.53
2023-03-13T05:35:51.547Z,22.43
2023-03-13T05:41:43.317Z,24.40
2023-03-13T05:44:46.331Z,14.93
2023-03-13T05:48:09.550Z,17.23
2023-03-13T05:52:06.486Z,23.97
2023-03-13T05:54:24.524Z,15.20
2023-03-13T05:57:12.096Z,25.30
2023-03-13T05:59:53.136Z,15.73
2023-03-13T06:02:51.516Z,23.57
2023-03-13T06:06:01.263Z,19.73
2023-03-13T06:11:39.621Z,19.57
2023-03-13T06:14:30.748Z,27.13
2023-03-13T06:17:42.041Z,8.53
2023-03-13T06:20:48.037Z,12.60
2023-03-13T06:23:50.942Z,14.60
2023-03-13T06:26:36.592Z,38.63
2023-03-13T06:29:39.904Z,11.17
2023-03-13T06:33:00.042Z,15.47
2023-03-13T06:35:56.243Z,12.70
2023-03-13T06:38:36.146Z,27.10
2023-03-13T06:41:19.158Z,13.37
2023-03-13T06:44:06.296Z,9.23
2023-03-13T06:46:48.553Z,13.77
2023-03-13T06:49:23.446Z,18.70
2023-03-13T06:52:37.454Z,24.00
2023-03-13T06:55:16.411Z,12.77
2023-03-13T06:58:00.917Z,7.53
2023-03-13T07:00:41.154Z,14.60
2023-03-13T07:06:21.665Z,18.33
2023-03-13T07:09:02.815Z,11.23
2023-03-13T07:11:42.318Z,12.07
2023-03-13T07:17:31.958Z,14.20
2023-03-13T07:20:10.726Z,13.00
2023-03-13T07:22:46.701Z,8.87
2023-03-13T07:25:32.800Z,10.53
2023-03-13T07:28:06.712Z,12.80
2023-03-13T07:30:48.510Z,19.50
2023-03-13T07:33:27.907Z,15.60
2023-03-13T07:36:03.442Z,11.93
2023-03-13T07:38:49.061Z,8.03
2023-03-13T07:41:55.147Z,10.53
2023-03-13T07:44:25.179Z,5.87
2023-03-13T07:47:02.806Z,15.03
2023-03-13T07:49:46.283Z,9.47
2023-03-13T07:52:23.098Z,12.67
2023-03-13T07:55:14.673Z,11.77
2023-03-13T07:57:53.431Z,6.67
2023-03-13T08:00:29.576Z,17.63
2023-03-13T08:07:04.483Z,12.83
2023-03-13T08:10:25.228Z,22.67
2023-03-13T08:13:17.778Z,21.93
2023-03-13T08:16:19.456Z,14.20
2023-03-13T08:22:46.466Z,8.60
2023-03-13T08:29:15.085Z,37.03
2023-03-13T08:39:05.929Z,7.00
2023-03-13T08:41:36.270Z,6.80
2023-03-13T08:44:06.816Z,10.17
2023-03-13T08:46:37.725Z,6.17
2023-03-13T08:49:08.061Z,3.57
2023-03-13T08:51:37.892Z,5.33
2023-03-13T08:54:06.825Z,3.07
2023-03-13T09:00:36.701Z,13.80
2023-03-13T09:03:23.640Z,6.57
2023-03-13T09:06:17.674Z,4.47
2023-03-13T09:09:10.710Z,5.77
2023-03-13T09:12:34.409Z,3.43
2023-03-13T09:19:27.099Z,2.60
2023-03-13T09:22:37.739Z,4.10
2023-03-13T09:29:07.271Z,9.87
2023-03-13T09:35:25.018Z,1.63
2023-03-13T09:38:41.736Z,6.90
2023-03-13T09:45:05.039Z,2.03
2023-03-13T09:48:32.348Z,5.07
2023-03-13T09:55:46.588Z,2.47
2023-03-13T10:11:32.871Z,1.60
2023-03-13T10:14:05.301Z,4.07
2023-03-13T10:16:38.839Z,2.20
2023-03-13T10:19:13.687Z,3.03
2023-03-13T10:21:44.098Z,4.23
2023-03-13T10:24:18.355Z,4.60
2023-03-13T10:26:45.719Z,5.20
2023-03-13T10:29:21.904Z,2.90
2023-03-13T10:31:57.628Z,4.73
2023-03-13T10:34:26.162Z,6.10
2023-03-13T10:36:58.910Z,5.20
2023-03-13T10:39:28.263Z,1.60
2023-03-13T10:42:08.973Z,2.17
2023-03-13T10:44:36.367Z,3.37
2023-03-13T10:47:06.002Z,2.00
2023-03-13T10:49:33.466Z,1.33
2023-03-13T10:52:02.380Z,2.17
2023-03-13T10:54:31.539Z,2.20
2023-03-13T10:57:27.372Z,4.53
2023-03-13T10:59:55.669Z,3.23
2023-03-13T11:02:27.458Z,4.50
2023-03-13T11:04:55.560Z,2.30
2023-03-13T11:07:28.497Z,2.10
2023-03-13T11:10:01.127Z,2.40
2023-03-13T11:12:32.665Z,1.23
2023-03-13T11:15:01.211Z,11.00
2023-03-13T11:17:35.771Z,1.77
2023-03-13T11:20:12.220Z,2.77
2023-03-13T11:22:49.147Z,2.93
2023-03-13T11:25:22.912Z,1.40
2023-03-13T11:28:06.586Z,1.70
2023-03-13T11:30:52.162Z,1.73
2023-03-13T11:33:29.007Z,2.97
2023-03-13T11:36:01.319Z,1.33
2023-03-13T11:38:33.033Z,2.03
2023-03-13T11:41:13.220Z,2.00
2023-03-13T11:43:54.710Z,3.30
2023-03-13T11:46:40.262Z,1.40
2023-03-13T11:49:51.317Z,1.83
2023-03-13T11:52:38.251Z,1.70
2023-03-13T11:55:37.661Z,2.40
2023-03-13T11:58:24.476Z,1.80
2023-03-13T12:00:57.873Z,1.73
2023-03-13T12:03:36.352Z,4.50
2023-03-13T12:06:09.255Z,1.70
2023-03-13T12:08:43.530Z,1.67
2023-03-13T12:11:17.668Z,2.20
2023-03-13T12:13:50.602Z,2.23
2023-03-13T12:16:23.414Z,4.90
2023-03-13T12:18:52.154Z,1.63
2023-03-13T12:21:26.029Z,3.80
2023-03-13T12:24:01.127Z,2.23
2023-03-13T12:26:37.069Z,1.37
2023-03-13T12:29:12.858Z,1.70
2023-03-13T12:31:43.394Z,1.67
2023-03-13T12:34:16.544Z,1.23
2023-03-13T12:36:49.680Z,1.20
2023-03-13T12:39:28.497Z,5.50
2023-03-13T12:42:16.907Z,4.47
2023-03-13T12:44:45.511Z,2.80
2023-03-13T12:47:22.970Z,3.00
2023-03-13T12:50:11.667Z,5.00
2023-03-13T12:52:50.539Z,5.40
2023-03-13T12:55:35.157Z,5.00
2023-03-13T12:58:28.316Z,4.13
2023-03-13T13:01:01.865Z,3.10
2023-03-13T13:03:35.592Z,2.47
2023-03-13T13:06:06.766Z,16.43
2023-03-13T13:08:37.244Z,2.03
2023-03-13T13:11:41.211Z,2.83
2023-03-13T13:14:53.043Z,6.93
2023-03-13T13:17:28.553Z,1.60
2023-03-13T13:19:56.940Z,1.50
2023-03-13T13:22:46.855Z,1.53
2023-03-13T13:25:31.109Z,2.03
2023-03-13T13:28:22.310Z,2.53
2023-03-13T13:30:50.668Z,4.97
2023-03-13T13:33:39.983Z,4.07
2023-03-13T13:36:40.825Z,3.40
2023-03-13T13:39:35.546Z,8.23
2023-03-13T13:42:41.371Z,2.80
2023-03-13T13:45:28.580Z,6.80
2023-03-13T13:48:25.013Z,1.90
2023-03-13T13:51:27.938Z,4.30
2023-03-13T13:53:59.694Z,7.50
2023-03-13T13:56:37.552Z,2.80
2023-03-13T13:59:26.739Z,3.83
2023-03-13T14:02:21.185Z,1.73
2023-03-13T14:04:52.576Z,1.30
2023-03-13T14:07:27.823Z,1.57
2023-03-13T14:10:03.950Z,2.33
2023-03-13T14:12:32.927Z,4.50
2023-03-13T14:15:15.380Z,6.00
2023-03-13T14:17:44.543Z,2.30
2023-03-13T14:20:26.078Z,1.20
2023-03-13T14:22:55.530Z,2.43
2023-03-13T14:25:24.662Z,2.77
2023-03-13T14:27:53.836Z,3.40
2023-03-13T14:30:22.881Z,1.50
2023-03-13T14:32:52.494Z,3.77
2023-03-13T14:35:22.428Z,5.40
2023-03-13T14:37:52.704Z,4.17
2023-03-13T14:40:27.633Z,4.13
2023-03-13T14:42:57.599Z,7.30
2023-03-13T14:45:31.272Z,2.57
2023-03-13T14:48:16.324Z,4.90
2023-03-13T14:50:43.999Z,1.70
2023-03-13T14:53:16.477Z,4.93
2023-03-13T14:55:48.602Z,3.60
2023-03-13T14:58:27.950Z,2.37
2023-03-13T15:00:58.219Z,7.33
2023-03-13T15:03:30.793Z,2.00
2023-03-13T15:06:22.372Z,3.93
2023-03-13T15:09:14.209Z,5.80
2023-03-13T15:11:54.673Z,2.03
2023-03-13T15:14:38.076Z,2.10
2023-03-13T15:17:15.133Z,4.20
2023-03-13T15:19:43.446Z,2.57
2023-03-13T15:22:14.681Z,3.17
2023-03-13T15:24:43.274Z,4.00
2023-03-13T15:27:18.042Z,1.40
2023-03-13T15:29:45.738Z,15.70
2023-03-13T15:32:18.987Z,2.70
2023-03-13T15:34:46.645Z,2.63
2023-03-13T15:37:14.119Z,1.50
2023-03-13T15:39:41.916Z,1.43
2023-03-13T15:42:09.356Z,3.50
2023-03-13T15:44:37.463Z,2.10
2023-03-13T15:47:05.078Z,1.53
2023-03-13T15:49:32.415Z,2.73
2023-03-13T15:51:59.818Z,5.27
2023-03-13T15:54:27.199Z,5.20
2023-03-13T15:56:54.658Z,2.20
2023-03-13T15:59:22.008Z,1.97
2023-03-13T16:01:50.201Z,1.40
2023-03-13T16:04:17.492Z,1.10
2023-03-13T16:06:44.754Z,1.50
2023-03-13T16:09:17.602Z,4.97
2023-03-13T16:20:57.685Z,4.63
2023-03-13T16:28:13.964Z,2.93
2023-03-13T16:36:10.053Z,12.40
2023-03-13T16:55:13.062Z,8.50
2023-03-13T17:01:38.525Z,1.87
2023-03-13T17:11:36.359Z,2.73
2023-03-13T17:17:51.046Z,7.07
2023-03-13T17:20:39.295Z,3.17
2023-03-13T17:23:30.697Z,2.03
2023-03-13T17:26:39.232Z,7.03
2023-03-13T17:29:36.805Z,2.53
2023-03-13T17:46:03.565Z,4.40
2023-03-13T17:48:47.889Z,5.60
2023-03-13T17:52:03.584Z,2.40
2023-03-13T17:58:06.611Z,9.63
2023-03-13T18:00:51.401Z,6.33
2023-03-13T18:03:45.397Z,9.60
2023-03-13T18:06:29.687Z,7.23
2023-03-13T18:09:16.245Z,2.30
2023-03-13T18:12:02.201Z,6.77
2023-03-13T18:17:33.867Z,14.70
2023-03-13T18:20:30.023Z,10.57
2023-03-13T18:23:14.802Z,7.07
2023-03-13T18:26:15.953Z,4.40
2023-03-13T18:29:02.724Z,2.93
2023-03-13T18:31:53.031Z,3.67
2023-03-13T18:34:32.117Z,3.70
2023-03-13T18:37:23.239Z,4.00
2023-03-13T18:40:31.997Z,2.90
2023-03-13T18:43:33.859Z,6.47
2023-03-13T18:46:19.851Z,3.23
2023-03-13T18:49:18.140Z,2.70
2023-03-13T18:52:51.020Z,5.97
2023-03-13T19:03:29.228Z,11.70
2023-03-13T19:06:19.720Z,5.07
2023-03-13T19:08:57.000Z,6.50
2023-03-13T19:11:29.630Z,4.40
2023-03-13T19:14:00.081Z,9.70
2023-03-13T19:16:35.416Z,32.73
2023-03-13T19:19:16.452Z,19.33
2023-03-13T19:21:44.216Z,4.80
2023-03-13T19:24:16.962Z,8.23
2023-03-13T19:26:53.988Z,8.10
2023-03-13T19:29:26.329Z,3.30
2023-03-13T19:32:07.444Z,2.93
2023-03-13T19:34:49.032Z,7.50
2023-03-13T19:37:18.364Z,2.23
2023-03-13T19:39:50.908Z,1.40
2023-03-13T19:42:18.386Z,3.47
2023-03-13T19:44:54.500Z,2.30
2023-03-13T19:47:33.227Z,2.33
2023-03-13T19:50:02.214Z,3.33
2023-03-13T19:52:38.718Z,4.57
2023-03-13T19:55:15.602Z,4.13
2023-03-13T19:57:45.311Z,9.73
2023-03-13T20:06:50.890Z,1.70
2023-03-13T20:09:51.483Z,3.10
2023-03-13T20:12:24.973Z,6.00
2023-03-13T20:15:24.278Z,1.73
2023-03-13T20:18:54.501Z,1.27
2023-03-13T20:21:42.617Z,2.70
2023-03-13T20:24:23.066Z,1.30
2023-03-13T20:27:06.436Z,1.47
2023-03-13T20:29:58.345Z,1.67
2023-03-13T20:32:39.471Z,1.23
2023-03-13T20:35:16.885Z,1.53
2023-03-13T20:40:59.903Z,4.20
2023-03-13T20:43:35.544Z,3.60
2023-03-13T20:46:06.386Z,2.33
2023-03-13T20:53:24.413Z,4.83
2023-03-13T20:56:07.280Z,3.47
2023-03-13T20:59:47.656Z,2.70
2023-03-13T21:02:57.521Z,2.60
2023-03-13T21:09:21.118Z,0.90
2023-03-13T21:12:02.507Z,1.20
2023-03-13T21:14:33.885Z,1.13
2023-03-13T21:17:48.415Z,1.47
2023-03-13T21:20:48.362Z,4.00
2023-03-13T21:30:30.510Z,1.27
2023-03-13T21:39:42.724Z,1.53
2023-03-13T21:42:59.332Z,3.40
2023-03-13T21:48:51.840Z,0.97
2023-03-13T21:51:33.623Z,3.13
2023-03-13T21:54:06.338Z,1.00
2023-03-13T21:56:35.827Z,0.83
2023-03-13T22:02:26.841Z,1.07
2023-03-13T22:05:17.826Z,0.80
2023-03-13T22:07:56.562Z,1.73
2023-03-13T22:10:54.908Z,0.80
2023-03-13T22:13:34.680Z,0.90
2023-03-13T22:16:58.761Z,1.00
2023-03-13T22:19:36.818Z,0.80
2023-03-13T22:22:11.655Z,1.17
2023-03-13T22:24:45.987Z,5.33
2023-03-13T22:27:29.289Z,0.93
2023-03-13T22:30:00.429Z,1.40
2023-03-13T22:32:29.758Z,4.37
2023-03-13T22:35:06.128Z,3.13
2023-03-13T22:46:06.409Z,1.13
2023-03-13T22:48:34.078Z,0.80
2023-03-13T22:51:03.363Z,1.10
2023-03-13T22:53:31.286Z,1.23
2023-03-13T22:55:58.833Z,0.87
2023-03-13T22:58:26.719Z,1.63
2023-03-13T23:00:55.057Z,3.27
2023-03-13T23:03:23.145Z,3.17
2023-03-13T23:05:50.511Z,4.30
2023-03-13T23:08:18.365Z,0.93
2023-03-13T23:10:46.888Z,2.10
2023-03-13T23:13:15.153Z,1.70
2023-03-13T23:15:57.648Z,1.60
2023-03-13T23:18:26.912Z,1.50
2023-03-13T23:20:54.991Z,0.73
2023-03-13T23:23:22.442Z,3.27
2023-03-13T23:25:49.833Z,1.67
2023-03-13T23:28:17.257Z,0.90
2023-03-13T23:30:44.548Z,1.40
2023-03-13T23:33:11.915Z,5.50
2023-03-13T23:35:40.050Z,0.93
2023-03-13T23:38:07.387Z,1.57
2023-03-13T23:40:34.720Z,1.10
2023-03-13T23:43:02.660Z,1.50
2023-03-13T23:45:30.263Z,1.07
2023-03-13T23:47:57.661Z,1.10
2023-03-13T23:50:25.024Z,2.33
2023-03-13T23:52:54.825Z,1.30
2023-03-13T23:55:22.330Z,2.50
2023-03-13T23:57:49.993Z,1.70
